createdAt,value
2022-12-16T07:48:07.887Z,4.41
2022-12-16T07:50:54.965Z,4.53
2022-12-16T07:53:41.418Z,4.69
2022-12-16T07:56:27.683Z,4.80
2022-12-16T07:59:13.106Z,4.89
2022-12-16T08:01:58.738Z,4.96
2022-12-16T08:04:45.986Z,5.09
2022-12-16T08:07:31.517Z,5.17
2022-12-16T08:10:16.710Z,5.28
2022-12-16T08:13:02.021Z,5.36
2022-12-16T08:15:46.732Z,5.45
2022-12-16T08:18:32.381Z,5.47
2022-12-16T08:21:35.599Z,5.53
2022-12-16T08:24:21.140Z,5.57
2022-12-16T08:27:06.420Z,5.50
2022-12-16T08:29:51.889Z,5.47
2022-12-16T08:32:37.465Z,5.48
2022-12-16T08:35:23.245Z,5.37
2022-12-16T08:38:14.071Z,5.34
2022-12-16T08:41:00.696Z,5.38
2022-12-16T08:43:46.920Z,5.22
2022-12-16T08:46:32.539Z,5.19
2022-12-16T08:49:17.980Z,5.15
2022-12-16T08:52:03.578Z,5.03
2022-12-16T08:54:50.442Z,4.95
2022-12-16T08:57:36.044Z,5.06
2022-12-16T09:00:22.871Z,5.01
2022-12-16T09:03:26.508Z,4.98
2022-12-16T09:06:17.445Z,4.88
2022-12-16T09:09:11.573Z,4.96
2022-12-16T09:11:58.793Z,5.04
2022-12-16T09:14:44.402Z,5.20
2022-12-16T09:17:29.853Z,5.36
2022-12-16T09:20:15.027Z,5.49
2022-12-16T09:23:00.266Z,5.49
2022-12-16T09:25:45.832Z,5.39
2022-12-16T09:28:32.808Z,5.38
2022-12-16T09:31:18.020Z,5.44
2022-12-16T09:34:03.242Z,5.50
2022-12-16T09:36:48.753Z,5.65
2022-12-16T09:39:34.392Z,5.73
2022-12-16T09:42:29.376Z,5.81
2022-12-16T09:45:25.465Z,5.80
2022-12-16T09:48:19.511Z,5.77
2022-12-16T09:51:05.056Z,5.76
2022-12-16T09:53:55.242Z,5.54
2022-12-16T09:56:46.499Z,5.41
2022-12-16T09:59:50.690Z,5.34
2022-12-16T10:02:39.818Z,5.40
2022-12-16T10:05:29.409Z,5.42
2022-12-16T10:08:24.916Z,5.47
2022-12-16T10:11:16.539Z,5.56
2022-12-16T10:14:19.105Z,5.49
2022-12-16T10:17:15.004Z,5.56
2022-12-16T10:20:10.177Z,5.55
2022-12-16T10:23:00.882Z,5.46
2022-12-16T10:25:50.916Z,5.48
2022-12-16T10:28:43.227Z,5.55
2022-12-16T10:31:33.917Z,5.48
2022-12-16T10:34:19.870Z,5.34
2022-12-16T10:37:12.345Z,5.31
2022-12-16T10:40:04.695Z,5.33
2022-12-16T10:43:06.683Z,5.44
2022-12-16T10:45:56.947Z,5.55
2022-12-16T10:48:51.383Z,5.54
2022-12-16T10:51:43.039Z,5.56
2022-12-16T10:54:47.168Z,5.47
2022-12-16T10:57:39.409Z,5.69
2022-12-16T11:00:31.169Z,5.77
2022-12-16T11:03:36.130Z,5.86
2022-12-16T11:06:22.180Z,5.85
2022-12-16T11:09:07.626Z,5.90
2022-12-16T11:11:55.641Z,5.83
2022-12-16T11:15:05.661Z,5.75
2022-12-16T11:17:49.032Z,5.64
2022-12-16T11:20:38.650Z,5.70
2022-12-16T11:23:37.392Z,5.66
2022-12-16T11:26:36.232Z,5.61
2022-12-16T11:29:30.948Z,5.67
2022-12-16T11:32:21.124Z,5.67
2022-12-16T11:35:12.793Z,5.65
2022-12-16T11:38:00.474Z,5.58
2022-12-16T11:40:48.989Z,5.60
2022-12-16T11:43:37.153Z,5.66
2022-12-16T11:46:43.257Z,5.68
2022-12-16T11:49:49.734Z,5.78
2022-12-16T11:52:37.980Z,5.82
2022-12-16T11:58:57.176Z,5.81
2022-12-16T12:01:49.003Z,5.82
2022-12-16T12:04:34.558Z,5.79
2022-12-16T12:07:45.603Z,5.64
2022-12-16T12:10:49.207Z,5.67
2022-12-16T12:13:51.163Z,5.71
2022-12-16T12:16:49.345Z,5.72
2022-12-16T12:19:43.858Z,5.78
